Time;durP1;ratioP1;P1;durP2;ratioP2;P2;SDS_P1;SDS_P2;PMS_P1;PMS_P2;Temp;Humidity;BMP_temperature;BMP_pressure;BME280_temperature;BME280_humidity;BME280_pressure;Samples;Min_cycle;Max_cycle;Signal;HPM_P1;HPM_P2
2022/01/18 00:01:15;;;;;;;12.73;8.10;;;;;;;5.31;92.60;103306.28;5002438;28;20457;-48
2022/01/18 00:03:45;;;;;;;14.27;6.60;;;;;;;5.29;93.19;103320.53;4999191;28;20823;-51
2022/01/18 00:06:13;;;;;;;8.57;6.60;;;;;;;5.30;92.75;103307.22;4997731;28;20532;-48
2022/01/18 00:08:41;;;;;;;10.50;6.57;;;;;;;5.31;93.02;103305.44;4998746;28;20445;-46
2022/01/18 00:11:09;;;;;;;23.97;7.73;;;;;;;5.30;93.36;103307.22;5002638;28;20472;-45
2022/01/18 00:13:40;;;;;;;10.93;7.20;;;;;;;5.31;93.80;103308.09;5009615;28;20428;-51
2022/01/18 00:16:13;;;;;;;14.43;7.80;;;;;;;5.32;93.23;103309.75;5009824;28;20461;-47
2022/01/18 00:18:41;;;;;;;12.60;7.40;;;;;;;5.32;93.76;103315.06;4981020;28;20434;-50
2022/01/18 00:21:23;;;;;;;12.90;7.60;;;;;;;5.34;93.32;103313.19;4995902;28;20465;-49
2022/01/18 00:23:55;;;;;;;14.80;7.30;;;;;;;5.37;93.44;103324.41;4993067;28;20435;-51
2022/01/18 00:26:25;;;;;;;14.73;6.20;;;;;;;5.41;93.68;103322.38;5005439;28;20920;-46
2022/01/18 00:28:57;;;;;;;7.07;6.03;;;;;;;5.39;94.20;103321.66;5009500;28;20501;-50
2022/01/18 00:31:41;;;;;;;9.83;6.20;;;;;;;5.40;94.32;103320.72;5007780;28;20462;-48
2022/01/18 00:34:14;;;;;;;15.63;6.97;;;;;;;5.41;94.34;103322.38;5009848;28;20434;-47
2022/01/18 00:36:54;;;;;;;19.00;6.17;;;;;;;5.40;94.19;103318.91;5000003;28;20450;-51
2022/01/18 00:39:22;;;;;;;11.37;6.57;;;;;;;5.40;94.50;103321.56;4998111;28;20917;-48
2022/01/18 00:41:49;;;;;;;8.30;5.87;;;;;;;5.39;94.59;103327.78;5003680;28;20461;-48
2022/01/18 00:44:17;;;;;;;10.50;5.87;;;;;;;5.37;95.49;103328.84;4996093;28;20437;-47
2022/01/18 00:46:45;;;;;;;11.70;6.20;;;;;;;5.36;95.18;103329.78;4998935;28;20458;-48
2022/01/18 00:49:15;;;;;;;7.33;6.17;;;;;;;5.40;95.10;103347.19;4996821;28;20434;-50
2022/01/18 00:51:51;;;;;;;13.23;6.43;;;;;;;5.39;94.77;103340.16;4994498;28;20478;-50
2022/01/18 00:54:22;;;;;;;20.43;5.93;;;;;;;5.41;95.09;103351.50;5011106;28;20433;-53
2022/01/18 00:56:52;;;;;;;9.27;5.73;;;;;;;5.39;95.23;103353.41;5005390;28;20465;-49
2022/01/18 00:59:21;;;;;;;8.87;6.33;;;;;;;5.33;95.73;103356.44;4995646;28;20429;-47
2022/01/18 01:01:49;;;;;;;9.87;6.00;;;;;;;5.30;95.61;103356.63;4996638;28;20813;-49
2022/01/18 01:04:20;;;;;;;12.17;6.53;;;;;;;5.28;95.59;103354.13;5000889;28;20427;-48
2022/01/18 01:06:49;;;;;;;16.30;6.13;;;;;;;5.27;95.56;103354.19;4996815;28;21038;-49
2022/01/18 01:09:17;;;;;;;8.90;5.63;;;;;;;5.26;95.68;103353.34;4998451;28;20437;-50
2022/01/18 01:11:45;;;;;;;7.87;6.50;;;;;;;5.25;95.60;103356.97;5003262;28;20458;-51
2022/01/18 01:14:19;;;;;;;9.27;6.17;;;;;;;5.26;95.78;103353.34;4991789;28;20513;-47
2022/01/18 01:16:53;;;;;;;13.00;6.20;;;;;;;5.25;95.80;103364.03;5001290;28;20461;-49
2022/01/18 01:19:48;;;;;;;9.83;6.10;;;;;;;5.25;95.53;103362.25;5008891;28;20436;-46
2022/01/18 01:36:18;;;;;;;7.73;5.90;;;;;;;5.46;95.77;103370.59;5011495;28;20475;-44
2022/01/18 01:41:50;;;;;;;10.70;6.73;;;;;;;5.51;95.59;103374.63;5010936;28;20469;-45
2022/01/18 01:44:25;;;;;;;8.47;5.20;;;;;;;5.54;95.87;103370.94;5008803;28;20460;-44
2022/01/18 01:46:53;;;;;;;12.83;6.50;;;;;;;5.49;95.61;103367.75;5012093;28;20444;-46
2022/01/18 01:49:23;;;;;;;10.73;7.10;;;;;;;5.48;95.94;103366.03;5014749;28;20456;-47
2022/01/18 01:51:51;;;;;;;9.83;6.40;;;;;;;5.47;95.44;103380.22;5014147;28;20475;-47
2022/01/18 01:54:20;;;;;;;10.67;6.10;;;;;;;5.51;95.48;103376.44;5014848;28;20453;-48
2022/01/18 01:56:48;;;;;;;14.57;6.70;;;;;;;5.48;95.46;103379.28;5014974;28;20434;-49
2022/01/18 01:59:16;;;;;;;10.60;5.90;;;;;;;5.46;95.60;103370.59;5014679;28;20475;-47
2022/01/18 02:01:47;;;;;;;6.80;5.80;;;;;;;5.46;95.56;103379.38;5013853;28;20464;-47
2022/01/18 02:04:17;;;;;;;13.13;5.50;;;;;;;5.50;95.60;103375.56;5014604;28;20429;-45
2022/01/18 02:06:44;;;;;;;9.43;6.30;;;;;;;5.53;95.58;103391.25;5014696;28;20425;-44
2022/01/18 02:09:14;;;;;;;8.00;7.23;;;;;;;5.52;95.78;103397.53;5014432;28;20441;-47
2022/01/18 02:11:43;;;;;;;7.93;5.67;;;;;;;5.58;95.34;103407.69;5013833;28;20477;-46
2022/01/18 02:14:16;;;;;;;13.33;6.77;;;;;;;5.61;95.56;103395.22;5014091;28;20484;-50
2022/01/18 02:22:16;;;;;;;6.87;5.30;;;;;;;5.51;95.67;103397.59;4994300;28;20440;-46
2022/01/18 02:24:44;;;;;;;7.63;5.40;;;;;;;5.50;96.11;103396.75;4994308;28;20836;-45
2022/01/18 02:27:12;;;;;;;9.93;6.07;;;;;;;5.50;95.42;103391.44;4994552;28;20435;-45
2022/01/18 02:29:40;;;;;;;8.80;6.10;;;;;;;5.49;95.59;103388.91;4994019;28;20434;-48
2022/01/18 02:32:09;;;;;;;6.37;5.33;;;;;;;5.49;95.99;103387.13;4994349;28;20438;-47
2022/01/18 02:34:36;;;;;;;9.30;5.77;;;;;;;5.49;95.42;103380.97;4994402;28;20457;-44
2022/01/18 02:37:05;;;;;;;11.27;6.93;;;;;;;5.47;95.70;103377.56;4994284;28;20474;-47
2022/01/18 02:39:34;;;;;;;9.70;6.20;;;;;;;5.46;95.30;103376.75;4994141;28;20449;-47
2022/01/18 02:42:06;;;;;;;11.50;6.40;;;;;;;5.47;95.00;103380.22;5013737;28;20476;-49
2022/01/18 02:44:35;;;;;;;12.03;6.57;;;;;;;5.44;94.97;103375.13;5013718;28;20452;-45
2022/01/18 02:47:04;;;;;;;10.23;6.40;;;;;;;5.43;95.15;103373.44;5013996;28;20433;-44
2022/01/18 02:49:33;;;;;;;7.23;6.57;;;;;;;5.44;95.20;103377.75;5013189;28;20513;-45
2022/01/18 02:52:02;;;;;;;14.37;6.40;;;;;;;5.41;95.32;103367.38;4994210;28;20470;-45
2022/01/18 02:54:30;;;;;;;11.50;6.40;;;;;;;5.41;95.25;103370.03;4993871;28;20505;-45
2022/01/18 02:57:01;;;;;;;8.63;6.90;;;;;;;5.39;95.49;103371.94;4994280;28;20438;-45
2022/01/18 02:59:34;;;;;;;8.33;6.30;;;;;;;5.41;95.27;103377.97;4993065;28;20430;-45
2022/01/18 03:04:55;;;;;;;6.17;5.57;;;;;;;5.39;95.44;103372.78;4938758;28;20461;-45
2022/01/18 03:07:23;;;;;;;7.90;6.27;;;;;;;5.35;95.86;103365.97;4993876;28;20438;-45
2022/01/18 03:09:50;;;;;;;12.90;6.80;;;;;;;5.32;95.88;103374.13;4998584;28;20426;-45
2022/01/18 03:12:19;;;;;;;7.47;6.20;;;;;;;5.30;95.83;103375.16;5033041;28;20427;-49
2022/01/18 03:14:47;;;;;;;9.90;6.57;;;;;;;5.27;96.03;103370.06;5032805;28;20472;-46
2022/01/18 03:17:15;;;;;;;5.80;5.30;;;;;;;5.27;95.11;103375.34;5033251;28;20434;-47
2022/01/18 03:19:43;;;;;;;14.33;8.30;;;;;;;5.29;94.07;103371.66;5032507;28;20416;-49
2022/01/18 03:22:10;;;;;;;12.87;6.20;;;;;;;5.31;93.63;103371.59;5032976;28;20431;-47
2022/01/18 03:24:56;;;;;;;14.37;5.83;;;;;;;5.27;92.92;103370.06;5032777;28;20456;-44
2022/01/18 03:30:12;;;;;;;9.37;5.40;;;;;;;5.23;91.35;103372.06;5031959;28;20452;-47
2022/01/18 03:32:40;;;;;;;6.27;5.63;;;;;;;5.17;88.91;103377.72;5032442;28;20435;-46
2022/01/18 03:35:10;;;;;;;8.83;5.87;;;;;;;5.18;88.43;103378.59;5032516;28;20476;-47
2022/01/18 03:37:39;;;;;;;10.27;7.17;;;;;;;5.17;88.06;103374.28;5032907;28;20510;-48
2022/01/18 03:40:08;;;;;;;13.63;7.17;;;;;;;5.13;87.83;103381.53;5032245;28;20517;-45
2022/01/18 03:42:41;;;;;;;6.90;5.80;;;;;;;5.12;86.54;103379.84;5032413;28;20424;-45
2022/01/18 03:45:12;;;;;;;6.20;5.60;;;;;;;5.14;85.60;103379.75;5030280;28;20543;-46
2022/01/18 03:47:41;;;;;;;12.13;5.77;;;;;;;5.15;85.30;103384.94;5032446;28;20429;-47
2022/01/18 03:50:11;;;;;;;15.40;5.70;;;;;;;5.18;84.10;103389.16;5032046;28;20463;-46
2022/01/18 03:52:40;;;;;;;10.97;5.80;;;;;;;5.20;85.04;103387.28;5032439;28;20428;-45
2022/01/18 03:55:10;;;;;;;6.90;5.43;;;;;;;5.20;85.92;103397.84;5032132;28;20480;-44
2022/01/18 03:57:39;;;;;;;11.13;5.43;;;;;;;5.17;86.42;103400.72;5032247;28;20432;-46
2022/01/18 04:00:10;;;;;;;12.03;5.70;;;;;;;5.14;85.37;103390.34;5031662;28;20983;-45
2022/01/18 04:02:37;;;;;;;10.23;5.60;;;;;;;5.17;83.41;103403.38;5031901;28;20420;-45
2022/01/18 04:05:06;;;;;;;9.00;5.50;;;;;;;5.19;80.38;103390.88;5032112;28;21025;-46
2022/01/18 04:07:34;;;;;;;10.27;6.53;;;;;;;5.18;80.50;103405.91;5032347;28;20429;-46
2022/01/18 04:10:02;;;;;;;6.83;6.23;;;;;;;5.20;78.20;103400.50;5031477;28;20514;-44
2022/01/18 04:12:29;;;;;;;13.60;7.07;;;;;;;5.19;78.77;103407.59;5031882;28;20428;-45
2022/01/18 04:15:00;;;;;;;12.23;6.67;;;;;;;5.19;78.48;103419.97;5031661;28;20502;-45
2022/01/18 04:17:52;;;;;;;11.23;6.97;;;;;;;5.20;75.68;103411.06;5031975;28;20430;-44
2022/01/18 04:26:01;;;;;;;12.83;7.50;;;;;;;5.27;73.61;103412.41;5031748;28;20472;-48
2022/01/18 04:28:36;;;;;;;10.57;7.07;;;;;;;5.29;73.65;103414.00;5031951;28;20435;-48
2022/01/18 04:31:06;;;;;;;13.57;6.90;;;;;;;5.30;75.02;103409.56;5031370;28;20459;-47
2022/01/18 04:33:35;;;;;;;15.20;7.57;;;;;;;5.34;72.19;103408.44;5031701;28;20919;-46
2022/01/18 04:36:03;;;;;;;15.53;6.43;;;;;;;5.38;71.88;103407.25;5031614;28;20464;-44
2022/01/18 04:38:30;;;;;;;17.40;7.93;;;;;;;5.43;70.41;103411.34;5031854;28;20435;-45
2022/01/18 04:41:03;;;;;;;11.27;8.73;;;;;;;5.46;70.55;103416.44;5031100;28;20467;-45
2022/01/18 04:43:45;;;;;;;23.50;11.13;;;;;;;5.47;72.17;103411.97;5029313;28;20421;-44
2022/01/18 04:49:00;;;;;;;19.30;8.80;;;;;;;5.56;71.18;103408.72;5031780;28;20460;-47
2022/01/18 04:51:28;;;;;;;17.60;8.00;;;;;;;5.57;74.32;103413.09;5030968;28;20459;-45
2022/01/18 04:53:58;;;;;;;23.83;8.77;;;;;;;5.57;74.02;103413.94;5031449;28;20472;-45
2022/01/18 04:57:51;;;;;;;25.90;9.00;;;;;;;5.59;74.41;103419.13;5031433;28;20448;-48
2022/01/18 04:59:18;;;;;;;15.77;8.73;;;;;;;5.65;73.74;103413.44;5031309;28;20436;-44
2022/01/18 05:01:50;;;;;;;26.83;10.90;;;;;;;5.64;76.08;103424.13;5030739;28;20459;-47
2022/01/18 05:04:18;;;;;;;23.77;8.77;;;;;;;5.64;77.00;103419.69;5031316;28;20479;-44
2022/01/18 05:06:46;;;;;;;30.67;9.00;;;;;;;5.65;76.82;103418.72;5031411;28;20443;-44
2022/01/18 05:09:14;;;;;;;23.73;9.73;;;;;;;5.66;76.04;103427.53;5031239;28;20434;-45
2022/01/18 05:11:51;;;;;;;23.93;9.10;;;;;;;5.71;74.27;103431.56;5029822;28;20487;-45
2022/01/18 05:14:27;;;;;;;19.83;8.83;;;;;;;5.71;76.20;103423.63;5030839;28;20480;-46
2022/01/18 05:17:04;;;;;;;16.30;9.20;;;;;;;5.73;79.55;103431.47;5031486;28;20476;-48
2022/01/18 05:19:42;;;;;;;19.23;9.37;;;;;;;5.70;80.26;103434.31;5031164;28;20434;-45
2022/01/18 05:24:55;;;;;;;23.60;9.57;;;;;;;5.68;79.90;103438.84;5034842;28;20475;-46
2022/01/18 05:27:23;;;;;;;14.53;9.43;;;;;;;5.67;79.26;103439.81;5034812;28;20431;-45
2022/01/18 05:29:51;;;;;;;25.23;8.93;;;;;;;5.66;80.11;103438.97;5034284;28;20455;-45
2022/01/18 05:32:20;;;;;;;24.63;10.80;;;;;;;5.63;80.69;103439.16;5034700;28;20436;-45
2022/01/18 05:34:48;;;;;;;34.30;10.00;;;;;;;5.61;80.75;103434.91;5034568;28;20471;-45
2022/01/18 05:37:17;;;;;;;25.80;11.70;;;;;;;5.60;79.11;103436.72;5034808;28;20469;-46
2022/01/18 05:39:45;;;;;;;21.23;9.00;;;;;;;5.61;78.94;103443.72;5034280;28;20447;-49
2022/01/18 05:42:13;;;;;;;27.77;9.67;;;;;;;5.60;80.21;103449.94;5034578;28;20440;-48
2022/01/18 05:44:40;;;;;;;26.57;10.03;;;;;;;5.62;80.41;103447.19;5034301;28;20456;-48
2022/01/18 05:47:08;;;;;;;27.10;10.30;;;;;;;5.62;81.85;103442.75;5034545;28;20435;-44
2022/01/18 05:49:37;;;;;;;30.93;10.23;;;;;;;5.67;81.57;103442.47;5034050;28;20433;-47
2022/01/18 05:52:05;;;;;;;25.60;10.17;;;;;;;5.67;82.90;103448.63;5034145;28;20432;-45
2022/01/18 05:54:33;;;;;;;27.90;10.80;;;;;;;5.69;82.97;103441.41;5034065;28;20476;-46
2022/01/18 05:57:01;;;;;;;20.60;8.87;;;;;;;5.71;83.52;103450.09;5027949;28;20440;-46
2022/01/18 05:59:35;;;;;;;21.73;9.70;;;;;;;5.73;83.84;103444.72;5034229;28;20437;-45
2022/01/18 06:02:14;;;;;;;23.47;9.00;;;;;;;5.74;85.52;103449.91;5033876;28;20454;-48
2022/01/18 06:07:30;;;;;;;25.57;10.10;;;;;;;5.73;86.65;103450.00;5032841;28;20428;-47
2022/01/18 06:09:58;;;;;;;26.93;9.30;;;;;;;5.71;86.73;103450.09;5021521;28;20452;-46
2022/01/18 06:12:28;;;;;;;21.43;8.77;;;;;;;5.71;87.07;103451.88;5033567;28;20934;-45
2022/01/18 06:14:56;;;;;;;28.80;10.20;;;;;;;5.70;87.27;103450.22;5024797;28;20482;-48
2022/01/18 06:17:24;;;;;;;21.07;8.90;;;;;;;5.71;87.56;103454.53;5033857;28;20429;-46
2022/01/18 06:19:53;;;;;;;18.53;10.13;;;;;;;5.72;88.09;103457.09;5033332;28;20543;-47
2022/01/18 06:22:21;;;;;;;25.20;9.63;;;;;;;5.71;88.20;103467.78;5033100;28;20435;-48
2022/01/18 06:24:48;;;;;;;18.10;9.80;;;;;;;5.72;88.33;103465.03;5033257;28;20467;-46
2022/01/18 06:27:16;;;;;;;26.30;10.40;;;;;;;5.73;88.19;103460.59;5034039;28;20436;-45
2022/01/18 06:29:43;;;;;;;20.03;10.03;;;;;;;5.71;88.83;103454.53;5033443;28;20444;-45
2022/01/18 06:32:11;;;;;;;18.90;8.53;;;;;;;5.68;89.80;103452.09;5033831;28;20776;-46
2022/01/18 06:34:39;;;;;;;17.77;9.50;;;;;;;5.65;89.47;103455.78;5033602;28;20476;-45
2022/01/18 06:37:08;;;;;;;18.83;10.27;;;;;;;5.63;89.76;103443.59;5032389;28;20438;-45
2022/01/18 06:39:36;;;;;;;21.57;9.10;;;;;;;5.62;89.48;103452.47;5027583;28;20452;-44
2022/01/18 06:42:10;;;;;;;23.30;9.70;;;;;;;5.60;88.99;103442.00;5011781;28;20445;-44
2022/01/18 06:44:38;;;;;;;23.63;11.33;;;;;;;5.56;89.71;103445.78;5027775;28;20502;-46
2022/01/18 06:47:06;;;;;;;38.63;10.77;;;;;;;5.57;89.16;103448.34;5032110;28;20436;-45
2022/01/18 06:49:33;;;;;;;17.07;8.80;;;;;;;5.57;89.41;103440.41;5031891;28;20440;-48
2022/01/18 06:52:01;;;;;;;25.10;10.07;;;;;;;5.59;89.52;103446.44;5031058;28;20436;-46
2022/01/18 06:54:30;;;;;;;25.70;12.20;;;;;;;5.56;89.87;103449.28;5031676;28;20572;-47
2022/01/18 06:56:58;;;;;;;18.30;10.10;;;;;;;5.57;89.24;103450.16;5032139;28;20931;-47
2022/01/18 06:59:25;;;;;;;20.90;9.43;;;;;;;5.57;89.42;103447.50;5031919;28;20439;-48
2022/01/18 07:01:53;;;;;;;21.13;10.50;;;;;;;5.54;90.77;103448.53;5025134;28;21009;-44
2022/01/18 07:04:21;;;;;;;12.67;9.43;;;;;;;5.52;89.37;103461.03;5031311;28;20441;-47
2022/01/18 07:06:49;;;;;;;13.87;9.37;;;;;;;5.54;89.97;103471.50;5032037;28;20424;-46
2022/01/18 07:09:22;;;;;;;20.43;9.87;;;;;;;5.54;89.67;103475.00;5031986;28;20427;-45
2022/01/18 07:11:52;;;;;;;18.73;10.50;;;;;;;5.52;89.54;103478.72;5029540;28;20479;-48
2022/01/18 07:14:20;;;;;;;28.00;9.43;;;;;;;5.60;89.60;103481.72;5029184;28;20456;-48
2022/01/18 07:16:47;;;;;;;18.00;9.43;;;;;;;5.63;91.38;103478.88;5031687;28;20476;-48
2022/01/18 07:19:16;;;;;;;18.33;9.87;;;;;;;5.65;91.38;103476.97;5031921;28;20435;-47
2022/01/18 07:21:43;;;;;;;10.90;9.10;;;;;;;5.70;92.61;103481.97;5030154;28;21017;-45
2022/01/18 07:24:17;;;;;;;25.20;8.93;;;;;;;5.67;92.73;103476.88;5030191;28;20443;-44
2022/01/18 07:26:46;;;;;;;19.63;9.80;;;;;;;5.67;92.67;103475.09;5030321;28;20515;-44
2022/01/18 07:29:15;;;;;;;23.13;9.60;;;;;;;5.66;93.50;103476.03;5031564;28;20429;-45
2022/01/18 07:31:43;;;;;;;20.23;9.43;;;;;;;5.65;93.05;103487.56;5029234;28;20468;-49
2022/01/18 07:34:14;;;;;;;13.93;9.10;;;;;;;5.63;93.04;103481.53;5030491;28;20439;-44
2022/01/18 07:36:41;;;;;;;21.60;9.57;;;;;;;5.67;93.38;103495.41;5031352;28;20468;-46
2022/01/18 07:39:09;;;;;;;18.17;9.43;;;;;;;5.68;93.26;103494.44;5031279;28;20798;-44
2022/01/18 07:41:37;;;;;;;15.70;8.50;;;;;;;5.74;93.13;103488.75;5030136;28;20467;-44
2022/01/18 07:44:05;;;;;;;15.10;9.63;;;;;;;5.74;93.14;103486.13;5028141;28;20436;-49
2022/01/18 07:46:34;;;;;;;20.40;9.10;;;;;;;5.74;93.71;103499.34;5030996;28;20494;-45
2022/01/18 07:49:01;;;;;;;18.73;9.20;;;;;;;5.74;93.35;103502.00;5031395;28;20432;-44
2022/01/18 07:51:29;;;;;;;13.50;8.23;;;;;;;5.77;93.06;103502.66;5029790;28;20469;-44
2022/01/18 07:53:57;;;;;;;14.90;8.03;;;;;;;5.75;93.41;103493.97;5030564;28;20444;-44
2022/01/18 07:56:25;;;;;;;21.07;8.70;;;;;;;5.72;93.44;103499.47;5031167;28;20475;-47
2022/01/18 07:58:53;;;;;;;20.03;8.00;;;;;;;5.70;92.79;103496.06;5031190;28;20440;-46
2022/01/18 08:01:21;;;;;;;23.40;8.43;;;;;;;5.71;92.82;103496.91;5029911;28;20472;-47
2022/01/18 08:03:50;;;;;;;16.10;8.00;;;;;;;5.74;93.01;103491.41;5030231;28;20912;-45
2022/01/18 08:06:17;;;;;;;15.90;8.00;;;;;;;5.76;92.49;103487.75;5030236;28;20474;-48
2022/01/18 08:08:45;;;;;;;17.67;7.50;;;;;;;5.76;93.05;103493.03;5031163;28;20429;-45
2022/01/18 08:11:13;;;;;;;16.40;8.70;;;;;;;5.76;93.50;103490.38;5029633;28;20483;-44
2022/01/18 08:13:47;;;;;;;16.77;8.00;;;;;;;5.75;92.77;103488.69;5030516;28;20531;-48
2022/01/18 08:16:34;;;;;;;11.13;7.90;;;;;;;5.78;92.80;103491.13;5030758;28;20502;-44
2022/01/18 08:19:05;;;;;;;10.00;7.67;;;;;;;5.81;93.20;103480.34;5030978;28;20443;-45
2022/01/18 08:21:35;;;;;;;16.43;7.63;;;;;;;5.89;93.08;103485.16;5029419;28;20522;-47
2022/01/18 08:24:03;;;;;;;10.70;6.57;;;;;;;5.96;93.18;103484.69;5030076;28;20424;-44
2022/01/18 08:26:31;;;;;;;15.33;7.70;;;;;;;6.04;93.61;103487.66;5030563;28;20436;-49
2022/01/18 08:28:58;;;;;;;11.90;7.47;;;;;;;6.11;94.25;103498.72;5030524;28;20437;-45
2022/01/18 08:31:26;;;;;;;8.83;7.53;;;;;;;6.19;94.50;103500.84;5029196;28;20467;-45
2022/01/18 08:33:54;;;;;;;24.20;9.47;;;;;;;6.28;93.75;103503.75;5030306;28;20855;-45
2022/01/18 08:36:23;;;;;;;12.80;8.80;;;;;;;6.35;93.94;103505.03;5030583;28;20479;-46
2022/01/18 08:38:53;;;;;;;23.70;8.73;;;;;;;6.42;94.65;103510.78;5030618;28;20428;-45
2022/01/18 08:41:21;;;;;;;8.67;7.80;;;;;;;6.49;94.11;103510.28;5029373;28;20845;-46
2022/01/18 08:43:49;;;;;;;21.20;8.60;;;;;;;6.56;94.26;103521.31;5028301;28;20436;-44
2022/01/18 08:46:17;;;;;;;14.47;8.50;;;;;;;6.57;94.96;103518.56;5029973;28;20452;-44
2022/01/18 08:48:45;;;;;;;11.10;8.87;;;;;;;6.57;95.69;103518.56;5030592;28;20428;-46
2022/01/18 08:51:12;;;;;;;15.97;7.60;;;;;;;6.61;95.38;103516.53;5029386;28;20468;-44
2022/01/18 08:53:48;;;;;;;13.00;8.00;;;;;;;6.52;95.95;103525.13;5029850;28;20931;-44
2022/01/18 08:56:16;;;;;;;16.70;9.43;;;;;;;6.46;95.44;103531.69;5030204;28;20561;-44
2022/01/18 08:59:04;;;;;;;16.43;8.13;;;;;;;6.50;95.33;103524.38;5034803;28;20433;-44
2022/01/18 09:01:31;;;;;;;13.33;8.20;;;;;;;6.55;95.40;103531.06;5033223;28;20455;-47
2022/01/18 09:04:01;;;;;;;14.43;8.60;;;;;;;6.60;95.12;103533.44;5033764;28;20926;-44
2022/01/18 09:06:30;;;;;;;9.60;7.20;;;;;;;6.56;95.19;103542.53;5034327;28;20523;-50
2022/01/18 09:09:00;;;;;;;12.17;7.73;;;;;;;6.54;95.14;103545.25;5034282;28;20447;-44
2022/01/18 09:11:30;;;;;;;11.17;7.67;;;;;;;6.56;94.62;103538.09;5032947;28;20490;-47
2022/01/18 09:13:58;;;;;;;9.03;8.10;;;;;;;6.57;94.38;103542.41;5033823;28;20432;-47
2022/01/18 09:16:26;;;;;;;8.10;7.50;;;;;;;6.59;94.34;103543.19;5033583;28;20472;-44
2022/01/18 09:18:54;;;;;;;8.97;7.50;;;;;;;6.64;93.69;103543.72;5034064;28;20436;-47
2022/01/18 09:21:21;;;;;;;10.33;8.60;;;;;;;6.68;94.47;103552.31;5032206;28;21043;-46
2022/01/18 09:23:49;;;;;;;12.03;8.10;;;;;;;6.71;94.27;103549.47;5032482;28;20432;-45
2022/01/18 09:26:18;;;;;;;13.70;7.63;;;;;;;6.75;94.25;103550.94;5033204;28;20462;-49
2022/01/18 09:28:45;;;;;;;7.93;7.03;;;;;;;6.77;94.32;103549.03;5034149;28;20433;-46
2022/01/18 09:31:13;;;;;;;10.80;7.30;;;;;;;6.77;94.26;103557.00;5032531;28;20465;-44
2022/01/18 09:33:41;;;;;;;14.60;7.37;;;;;;;6.77;93.96;103562.31;5033070;28;20436;-45
2022/01/18 09:36:09;;;;;;;11.30;7.07;;;;;;;6.75;94.44;103553.59;5033284;28;20463;-44
2022/01/18 09:38:37;;;;;;;10.20;7.70;;;;;;;6.80;94.46;103553.28;5033058;28;20436;-45
2022/01/18 09:41:10;;;;;;;8.03;7.23;;;;;;;6.75;94.54;103550.09;5032417;28;20467;-44
2022/01/18 09:43:41;;;;;;;12.50;6.73;;;;;;;6.74;94.51;103556.34;5033031;28;20421;-51
2022/01/18 09:46:09;;;;;;;14.77;7.50;;;;;;;6.73;94.09;103565.25;5032484;28;20871;-44
2022/01/18 09:48:37;;;;;;;11.73;6.70;;;;;;;6.75;93.40;103566.84;5033708;28;20436;-45
2022/01/18 09:51:05;;;;;;;9.83;6.93;;;;;;;6.69;93.00;103565.44;5032379;28;21198;-46
2022/01/18 09:53:33;;;;;;;9.87;6.90;;;;;;;6.72;92.20;103575.00;5033186;28;20432;-45
2022/01/18 09:56:01;;;;;;;9.90;6.30;;;;;;;6.67;92.49;103572.69;5032728;28;20471;-45
2022/01/18 09:58:29;;;;;;;9.10;6.80;;;;;;;6.61;93.38;103578.38;5033191;28;20975;-44
2022/01/18 10:00:58;;;;;;;9.97;7.50;;;;;;;6.48;93.92;103584.63;5032162;28;20464;-44
2022/01/18 10:03:31;;;;;;;12.73;6.10;;;;;;;6.29;92.15;103590.25;5032906;28;20436;-44
2022/01/18 10:05:59;;;;;;;7.17;6.10;;;;;;;6.38;91.96;103587.00;5032767;28;20878;-45
2022/01/18 10:08:30;;;;;;;8.80;6.00;;;;;;;6.45;91.95;103577.69;5033197;28;20424;-45
2022/01/18 10:11:03;;;;;;;10.30;7.03;;;;;;;6.39;92.87;103577.25;5032165;28;20474;-44
2022/01/18 10:13:33;;;;;;;7.83;6.87;;;;;;;6.40;93.50;103582.44;5031934;28;20962;-47
2022/01/18 10:16:06;;;;;;;12.23;6.67;;;;;;;6.45;92.57;103582.16;5024244;28;20448;-45
2022/01/18 10:18:39;;;;;;;9.50;6.30;;;;;;;6.51;92.45;103579.09;5033094;28;20577;-45
2022/01/18 10:21:08;;;;;;;6.90;6.17;;;;;;;6.54;93.15;103577.09;5031824;28;20859;-45
2022/01/18 10:23:36;;;;;;;15.60;7.00;;;;;;;6.61;93.02;103585.47;5032393;28;20433;-45
2022/01/18 10:26:19;;;;;;;9.30;6.50;;;;;;;6.56;93.76;103587.59;5032077;28;20835;-45
2022/01/18 10:28:47;;;;;;;10.53;6.53;;;;;;;6.49;93.90;103595.09;5033016;28;20428;-48
2022/01/18 10:31:28;;;;;;;6.87;6.40;;;;;;;6.47;94.15;103594.38;5013194;28;20461;-46
2022/01/18 10:34:21;;;;;;;6.27;5.87;;;;;;;6.54;94.11;103592.16;5012097;28;20465;-44
2022/01/18 10:37:00;;;;;;;7.00;6.40;;;;;;;6.43;94.34;103594.66;5012311;28;20978;-44
2022/01/18 10:39:34;;;;;;;5.70;5.50;;;;;;;6.26;94.17;103584.31;5012920;28;20429;-44
2022/01/18 10:42:13;;;;;;;7.07;5.90;;;;;;;6.43;93.18;103579.59;5011710;28;20544;-51
2022/01/18 10:44:41;;;;;;;6.60;6.10;;;;;;;6.50;93.34;103586.22;5028252;28;20449;-44
2022/01/18 10:47:11;;;;;;;6.37;6.17;;;;;;;6.60;93.85;103586.47;5032349;28;20432;-48
2022/01/18 10:49:41;;;;;;;6.87;6.30;;;;;;;6.57;94.91;103581.34;5031780;28;20429;-45
2022/01/18 10:52:15;;;;;;;6.37;5.97;;;;;;;6.63;94.65;103584.44;5030136;28;20441;-45
2022/01/18 10:54:46;;;;;;;5.80;5.57;;;;;;;6.67;95.54;103590.38;5031248;28;20452;-44
2022/01/18 10:57:19;;;;;;;7.03;6.33;;;;;;;6.68;95.60;103581.47;5032307;28;20471;-46
2022/01/18 10:59:47;;;;;;;6.50;6.00;;;;;;;6.72;95.77;103584.78;5032160;28;20431;-48
2022/01/18 11:02:18;;;;;;;7.27;6.10;;;;;;;6.83;94.92;103582.25;5031385;28;20436;-44
2022/01/18 11:04:48;;;;;;;6.80;6.47;;;;;;;6.80;95.79;103577.16;5031175;28;20453;-46
2022/01/18 11:07:18;;;;;;;6.80;6.20;;;;;;;6.79;95.77;103576.31;5032150;28;20429;-46
2022/01/18 11:09:47;;;;;;;5.77;5.43;;;;;;;6.78;96.01;103577.25;5031873;28;20443;-48
2022/01/18 11:12:15;;;;;;;6.50;6.10;;;;;;;6.74;95.71;103572.25;5031008;28;20441;-46
2022/01/18 11:14:46;;;;;;;7.37;6.03;;;;;;;6.76;95.93;103576.50;5031062;28;20815;-45
2022/01/18 11:17:22;;;;;;;6.97;5.87;;;;;;;6.81;95.30;103570.91;5031932;28;20482;-44
2022/01/18 11:19:56;;;;;;;5.80;5.40;;;;;;;6.83;95.78;103569.84;5030689;28;20434;-45
2022/01/18 11:22:26;;;;;;;5.40;5.20;;;;;;;6.86;96.37;103572.28;5011007;28;20429;-44
2022/01/18 11:24:59;;;;;;;8.57;5.50;;;;;;;6.94;95.35;103574.41;5011175;28;20457;-45
2022/01/18 11:27:28;;;;;;;5.37;5.07;;;;;;;7.02;95.80;103564.13;5012049;28;20432;-43
2022/01/18 11:29:56;;;;;;;5.20;4.97;;;;;;;7.06;95.84;103568.28;5011649;28;20465;-45
2022/01/18 11:32:27;;;;;;;5.70;5.50;;;;;;;7.08;95.63;103564.56;5010653;28;21061;-45
2022/01/18 11:35:09;;;;;;;5.87;5.53;;;;;;;7.08;96.10;103572.50;5011096;28;20468;-45
2022/01/18 11:37:44;;;;;;;7.73;7.13;;;;;;;7.13;95.70;103572.22;5011936;28;20477;-44
2022/01/18 11:40:15;;;;;;;6.63;6.20;;;;;;;7.09;95.78;103558.31;5011258;28;20461;-51
2022/01/18 11:42:50;;;;;;;7.30;6.90;;;;;;;7.11;95.57;103560.84;5010907;28;20428;-49
2022/01/18 11:45:33;;;;;;;5.20;5.10;;;;;;;7.11;95.61;103569.66;5030427;28;20448;-47
2022/01/18 11:48:04;;;;;;;5.40;5.30;;;;;;;7.10;95.99;103570.63;5031568;28;20519;-45
2022/01/18 11:50:37;;;;;;;4.40;4.20;;;;;;;7.08;95.66;103569.00;5030597;28;20464;-44
2022/01/18 11:53:24;;;;;;;4.67;4.57;;;;;;;7.10;95.89;103559.16;5030656;28;20943;-45
2022/01/18 11:55:54;;;;;;;4.70;4.60;;;;;;;7.01;95.53;103557.13;5030214;28;20456;-44
2022/01/18 11:58:22;;;;;;;4.70;4.50;;;;;;;6.97;95.93;103561.78;5031315;28;20472;-45
2022/01/18 12:00:55;;;;;;;4.90;4.80;;;;;;;6.87;95.53;103557.22;5030196;28;20472;-45
2022/01/18 12:03:27;;;;;;;5.60;5.50;;;;;;;6.78;96.14;103558.69;5030212;28;20443;-45
2022/01/18 12:05:57;;;;;;;4.30;4.20;;;;;;;6.77;95.64;103567.63;5030280;28;20548;-44
2022/01/18 12:08:33;;;;;;;4.40;4.30;;;;;;;6.74;95.67;103556.34;5030927;28;20436;-45
2022/01/18 12:11:02;;;;;;;5.10;4.70;;;;;;;6.76;95.86;103559.75;5029153;28;20475;-45
2022/01/18 12:13:41;;;;;;;4.50;4.40;;;;;;;6.89;95.79;103547.34;5030327;28;20459;-44
2022/01/18 12:16:19;;;;;;;4.50;4.40;;;;;;;7.03;95.76;103556.06;5030654;28;20452;-44
2022/01/18 12:18:54;;;;;;;4.20;4.10;;;;;;;7.09;95.44;103560.97;5030930;28;20882;-45
2022/01/18 12:21:26;;;;;;;4.50;4.40;;;;;;;7.18;95.40;103560.31;5028116;28;20470;-47
2022/01/18 12:23:55;;;;;;;4.30;4.20;;;;;;;7.22;94.75;103560.97;5030270;28;20460;-45